x

Mt Desert Rock, Me (mdrm1) Weather Station

12:00 - Fri 29th May 2015 All times are EDT. -4 hours from GMT.

  • Wind
    2mph
  • Luft Temp 55°f
  • Sea Pressure 1026.3mb
  • Mt Desert Rock, Me
  • Mt Desert Rock, Me

More Historic Weather Station data

Upgrade to MSW Pro to gain access to the past 30 days of data for over 8000 Wavebouys and Weather Stations around the globe.

Join Pro

Comparision Forecast

View Surf forecast
   
Fr 05/29 12:00 2
mph
1026.3mb 55f
11:00 8 10 mph 1026.1mb 55f
10:00 8 9 mph 1026mb 54f
9:00 7 8 mph 1025.4mb 51f
8:00 17 20 mph 1024.6mb 57f
7:00 20
mph
1024.4mb 55f
6:00 18
mph
1023.4mb 56f
5:00 22
mph
1022.7mb 54f
4:00 16
mph
1022mb 51f
3:00 11 13 mph 1021.6mb 50f
2:00 16
mph
1021.4mb 49f
1:00 14
mph
1021mb 49f
12:00 14
mph
1020.5mb 51f
Do 05/28 11:00 16 17 mph 1020.2mb 51f
10:00 22 23 mph 1020.3mb 50f
9:00 16
mph
1019.9mb 52f
8:00 7 8 mph 1019.8mb 51f
7:00 17 18 mph 1019.4mb 51f
6:00 17 18 mph 1017.9mb 52f
5:00 26 28 mph 1017.2mb 52f
4:00 23 24 mph 1017.7mb 52f
3:00 25 28 mph 1017.7mb 52f
2:00 18 20 mph 1018.7mb 51f
1:00 23 24 mph 1019.3mb 51f
12:00 23 24 mph 1019.3mb 49f
11:00 24 25 mph 1019.4mb 50f
10:00 23 24 mph 1019.7mb 50f
9:00 25 28 mph 1019.8mb 50f
8:00 25 26 mph 1019.4mb 50f
7:00 24 25 mph 1019.1mb 50f
6:00 23
mph
1019.2mb 49f
5:00 26 28 mph 1018.5mb 50f
4:00 28 29 mph 1018.1mb 51f
3:00 31 33 mph 1017.7mb 52f
2:00 31 33 mph 1017.8mb 52f
1:00 23 24 mph 1018.4mb 50f
12:00 22 23 mph 1018.9mb 52f
Mi 05/27 11:00 18
mph
1019.3mb 50f
10:00 30 33 mph 1018.6mb 52f
9:00 30 32 mph 1018mb 53f
8:00 30 33 mph 1017.3mb 53f
7:00 32 36 mph 1017.2mb 53f
6:00 31 34 mph 1017.5mb 53f
5:00 31 32 mph 1017.8mb 52f
4:00 20 22 mph 1019mb 52f
3:00 22 23 mph 1019.8mb 51f
2:00 25 26 mph 1020.2mb 51f
1:00 17 18 mph 1020.9mb 51f
12:00 16 17 mph 1021.3mb 50f
11:00 20 21 mph 1021.1mb 51f
10:00 18 20 mph 1020.9mb 50f
9:00 17
mph
1021.1mb 49f
8:00 18 20 mph 1021.1mb 49f
7:00 16 17 mph 1020.7mb 49f
6:00 18
mph
1020.1mb 50f
5:00 18 20 mph 1019.8mb 49f
4:00 17 18 mph 1019.3mb 49f
3:00 21 22 mph 1019.1mb 49f
2:00 15 16 mph 1019.7mb 50f
1:00 15 16 mph 1019.6mb 49f
12:00 14
mph
1019.5mb 49f
Di 05/26 11:00 14 15 mph 1019.3mb 51f
10:00 11 13 mph 1019.1mb 49f
9:00 15 16 mph 1018.6mb 49f
8:00 20 21 mph 1018.2mb 50f
7:00 25 26 mph 1018mb 51f
6:00 26 29 mph 1017.8mb 52f
5:00 25 26 mph 1018mb 52f
4:00 25 26 mph 1018.1mb 52f
3:00 17 18 mph 1018.3mb 50f
2:00 23 25 mph 1018.3mb 50f
1:00 22 24 mph 1018.7mb 50f
12:00 20 22 mph 1019.1mb 49f
11:00 28 30 mph 1018.8mb 50f
10:00 24 26 mph 1019.4mb 50f
9:00 24 25 mph 1019.4mb 49f
8:00 24 25 mph 1019.3mb 50f
7:00 29 30 mph 1019.1mb 49f
6:00 22 23 mph 1019.6mb 49f
5:00 24
mph
1019.5mb 49f
4:00 23 24 mph 1019.4mb 49f
3:00 22 23 mph 1019.6mb 49f
2:00 24 26 mph 1020mb 50f
1:00 22 23 mph 1020.8mb 50f
12:00 23 24 mph 1021mb 49f
Mo 05/25 11:00 18 20 mph 1021.5mb 49f
10:00 20
mph
1021.8mb 50f
9:00 21 22 mph 1021.7mb 50f
8:00 21 22 mph 1021.2mb 50f
7:00 24 25 mph 1021.1mb 51f
6:00 23 24 mph 1021mb 51f